Terminal Aerodrome Forecast
Issued by NWS Louisville, KY

Home | Current Version | Previous Version | Text Only | Print | Product List | Glossary On
Versions: 1 2 3 4 5 6 7 8 9 10 11 12 13 14 15 16 17 18 19 20 21 22 23 24 25
000
FTUS43 KLMK 191342 AAA
TAFSDF
TAF AMD
KSDF 191342Z 1914/2018 VRB04KT 4SM BR SCT008 BKN013
      TEMPO 1914/1916 2SM BR BKN008
     FM191700 24004KT P6SM BKN018
     FM192300 VRB03KT P6SM SCT022 SCT200
     FM200900 VRB03KT 4SM BR BKN200=

USA.gov is the U.S. government's official web portal to all federal, state and local government web resources and services.